sensor_id;sensor_type;location;lat;lon;timestamp;P1;durP1;ratioP1;P2;durP2;ratioP2
72115;SDS011;59991;52.140;5.428;2024-03-17T00:00:25;27.30;;;15.27;;
72115;SDS011;59991;52.140;5.428;2024-03-17T00:01:44;19.63;;;14.18;;
72115;SDS011;59991;52.140;5.428;2024-03-17T00:02:15;22.83;;;14.23;;
72115;SDS011;59991;52.140;5.428;2024-03-17T00:02:45;18.27;;;13.43;;
72115;SDS011;59991;52.140;5.428;2024-03-17T00:03:17;21.70;;;14.35;;
72115;SDS011;59991;52.140;5.428;2024-03-17T00:03:48;21.52;;;14.27;;
72115;SDS011;59991;52.140;5.428;2024-03-17T00:04:18;24.20;;;15.10;;
72115;SDS011;59991;52.140;5.428;2024-03-17T00:04:49;24.33;;;14.93;;
72115;SDS011;59991;52.140;5.428;2024-03-17T00:05:19;22.70;;;14.47;;
72115;SDS011;59991;52.140;5.428;2024-03-17T00:05:57;22.75;;;13.30;;
72115;SDS011;59991;52.140;5.428;2024-03-17T00:07:17;19.70;;;13.82;;
72115;SDS011;59991;52.140;5.428;2024-03-17T00:07:48;23.80;;;13.90;;
72115;SDS011;59991;52.140;5.428;2024-03-17T00:08:18;25.42;;;14.23;;
72115;SDS011;59991;52.140;5.428;2024-03-17T00:08:50;18.60;;;13.82;;
72115;SDS011;59991;52.140;5.428;2024-03-17T00:09:20;21.13;;;14.37;;
72115;SDS011;59991;52.140;5.428;2024-03-17T00:09:51;17.87;;;14.03;;
72115;SDS011;59991;52.140;5.428;2024-03-17T00:10:21;18.98;;;14.20;;
72115;SDS011;59991;52.140;5.428;2024-03-17T00:10:52;25.27;;;14.97;;
72115;SDS011;59991;52.140;5.428;2024-03-17T00:11:23;22.92;;;15.40;;
72115;SDS011;59991;52.140;5.428;2024-03-17T00:11:54;22.17;;;14.57;;
72115;SDS011;59991;52.140;5.428;2024-03-17T00:12:25;20.80;;;14.00;;
72115;SDS011;59991;52.140;5.428;2024-03-17T00:12:56;19.40;;;13.53;;
72115;SDS011;59991;52.140;5.428;2024-03-17T00:13:27;22.45;;;14.90;;
72115;SDS011;59991;52.140;5.428;2024-03-17T00:13:58;19.07;;;13.57;;
72115;SDS011;59991;52.140;5.428;2024-03-17T00:14:28;20.48;;;14.52;;
72115;SDS011;59991;52.140;5.428;2024-03-17T00:14:59;19.53;;;14.27;;
72115;SDS011;59991;52.140;5.428;2024-03-17T00:15:48;20.90;;;13.63;;
72115;SDS011;59991;52.140;5.428;2024-03-17T00:16:19;22.13;;;13.48;;
72115;SDS011;59991;52.140;5.428;2024-03-17T00:16:50;23.77;;;13.73;;
72115;SDS011;59991;52.140;5.428;2024-03-17T00:17:20;20.73;;;13.77;;
72115;SDS011;59991;52.140;5.428;2024-03-17T00:17:51;19.77;;;13.03;;
72115;SDS011;59991;52.140;5.428;2024-03-17T00:18:22;21.13;;;12.65;;
72115;SDS011;59991;52.140;5.428;2024-03-17T00:18:52;17.47;;;12.27;;
72115;SDS011;59991;52.140;5.428;2024-03-17T00:19:23;15.60;;;12.90;;
72115;SDS011;59991;52.140;5.428;2024-03-17T00:19:54;19.48;;;12.80;;
72115;SDS011;59991;52.140;5.428;2024-03-17T00:20:24;21.90;;;13.75;;
72115;SDS011;59991;52.140;5.428;2024-03-17T00:20:55;18.05;;;13.18;;
72115;SDS011;59991;52.140;5.428;2024-03-17T00:21:26;17.87;;;11.57;;
72115;SDS011;59991;52.140;5.428;2024-03-17T00:21:56;19.83;;;13.53;;
72115;SDS011;59991;52.140;5.428;2024-03-17T00:22:27;18.47;;;11.83;;
72115;SDS011;59991;52.140;5.428;2024-03-17T00:23:17;16.70;;;11.80;;
72115;SDS011;59991;52.140;5.428;2024-03-17T00:23:48;26.97;;;12.80;;
72115;SDS011;59991;52.140;5.428;2024-03-17T00:24:22;17.23;;;13.43;;
72115;SDS011;59991;52.140;5.428;2024-03-17T00:25:41;16.10;;;11.13;;
72115;SDS011;59991;52.140;5.428;2024-03-17T00:26:12;18.17;;;12.20;;
72115;SDS011;59991;52.140;5.428;2024-03-17T00:26:43;15.95;;;11.10;;
72115;SDS011;59991;52.140;5.428;2024-03-17T00:27:13;16.07;;;11.60;;
72115;SDS011;59991;52.140;5.428;2024-03-17T00:27:45;13.85;;;11.40;;
72115;SDS011;59991;52.140;5.428;2024-03-17T00:28:18;14.67;;;11.90;;
72115;SDS011;59991;52.140;5.428;2024-03-17T00:28:48;19.40;;;11.80;;
72115;SDS011;59991;52.140;5.428;2024-03-17T00:29:21;18.52;;;11.30;;
72115;SDS011;59991;52.140;5.428;2024-03-17T00:29:51;20.77;;;11.57;;
72115;SDS011;59991;52.140;5.428;2024-03-17T00:30:22;13.13;;;11.45;;
72115;SDS011;59991;52.140;5.428;2024-03-17T00:30:52;14.20;;;10.27;;
72115;SDS011;59991;52.140;5.428;2024-03-17T00:31:23;15.73;;;10.75;;
72115;SDS011;59991;52.140;5.428;2024-03-17T00:31:54;18.33;;;10.60;;
72115;SDS011;59991;52.140;5.428;2024-03-17T00:32:25;15.05;;;12.25;;
72115;SDS011;59991;52.140;5.428;2024-03-17T00:32:55;20.63;;;12.85;;
72115;SDS011;59991;52.140;5.428;2024-03-17T00:33:28;17.17;;;11.50;;
72115;SDS011;59991;52.140;5.428;2024-03-17T00:33:59;12.27;;;10.57;;
72115;SDS011;59991;52.140;5.428;2024-03-17T00:34:29;17.27;;;11.18;;
72115;SDS011;59991;52.140;5.428;2024-03-17T00:35:00;14.90;;;10.67;;
72115;SDS011;59991;52.140;5.428;2024-03-17T00:35:31;16.75;;;11.35;;
72115;SDS011;59991;52.140;5.428;2024-03-17T00:36:01;16.10;;;11.20;;
72115;SDS011;59991;52.140;5.428;2024-03-17T00:36:32;14.18;;;10.85;;
72115;SDS011;59991;52.140;5.428;2024-03-17T00:37:03;20.10;;;10.77;;
72115;SDS011;59991;52.140;5.428;2024-03-17T00:37:33;17.13;;;11.83;;
72115;SDS011;59991;52.140;5.428;2024-03-17T00:38:04;15.48;;;11.38;;
72115;SDS011;59991;52.140;5.428;2024-03-17T00:38:40;18.65;;;10.02;;
72115;SDS011;59991;52.140;5.428;2024-03-17T00:39:10;18.67;;;12.50;;
72115;SDS011;59991;52.140;5.428;2024-03-17T00:39:41;15.02;;;11.00;;
72115;SDS011;59991;52.140;5.428;2024-03-17T00:40:12;16.00;;;11.10;;
72115;SDS011;59991;52.140;5.428;2024-03-17T00:40:42;20.88;;;12.63;;
72115;SDS011;59991;52.140;5.428;2024-03-17T00:41:15;18.50;;;11.07;;
72115;SDS011;59991;52.140;5.428;2024-03-17T00:41:45;16.20;;;10.87;;
72115;SDS011;59991;52.140;5.428;2024-03-17T00:42:16;19.38;;;10.85;;
72115;SDS011;59991;52.140;5.428;2024-03-17T00:43:05;13.00;;;10.20;;
72115;SDS011;59991;52.140;5.428;2024-03-17T00:43:36;17.53;;;11.77;;
72115;SDS011;59991;52.140;5.428;2024-03-17T00:44:07;15.52;;;10.98;;
72115;SDS011;59991;52.140;5.428;2024-03-17T00:44:37;18.73;;;11.37;;
72115;SDS011;59991;52.140;5.428;2024-03-17T00:45:08;14.38;;;11.10;;
72115;SDS011;59991;52.140;5.428;2024-03-17T00:45:40;16.55;;;10.77;;
72115;SDS011;59991;52.140;5.428;2024-03-17T00:46:10;14.00;;;10.70;;
72115;SDS011;59991;52.140;5.428;2024-03-17T00:46:42;17.27;;;11.60;;
72115;SDS011;59991;52.140;5.428;2024-03-17T00:47:12;15.80;;;10.77;;
72115;SDS011;59991;52.140;5.428;2024-03-17T00:47:43;16.95;;;10.15;;
72115;SDS011;59991;52.140;5.428;2024-03-17T00:48:14;15.00;;;11.20;;
72115;SDS011;59991;52.140;5.428;2024-03-17T00:48:47;14.27;;;9.67;;
72115;SDS011;59991;52.140;5.428;2024-03-17T00:49:19;17.27;;;10.45;;
72115;SDS011;59991;52.140;5.428;2024-03-17T00:49:49;14.95;;;11.15;;
72115;SDS011;59991;52.140;5.428;2024-03-17T00:50:20;12.87;;;10.43;;
72115;SDS011;59991;52.140;5.428;2024-03-17T00:50:57;16.90;;;10.47;;
72115;SDS011;59991;52.140;5.428;2024-03-17T00:51:28;12.93;;;9.85;;
72115;SDS011;59991;52.140;5.428;2024-03-17T00:51:59;16.50;;;11.33;;
72115;SDS011;59991;52.140;5.428;2024-03-17T00:52:29;15.52;;;10.85;;
72115;SDS011;59991;52.140;5.428;2024-03-17T00:53:49;13.57;;;10.90;;
72115;SDS011;59991;52.140;5.428;2024-03-17T00:54:20;15.52;;;8.82;;
72115;SDS011;59991;52.140;5.428;2024-03-17T00:54:51;13.50;;;9.27;;
72115;SDS011;59991;52.140;5.428;2024-03-17T00:55:21;12.35;;;9.70;;
72115;SDS011;59991;52.140;5.428;2024-03-17T00:55:52;12.77;;;8.93;;
72115;SDS011;59991;52.140;5.428;2024-03-17T00:56:23;19.15;;;11.23;;
72115;SDS011;59991;52.140;5.428;2024-03-17T00:56:53;14.10;;;9.20;;
72115;SDS011;59991;52.140;5.428;2024-03-17T00:57:24;11.50;;;10.33;;
72115;SDS011;59991;52.140;5.428;2024-03-17T00:57:55;14.27;;;10.27;;
72115;SDS011;59991;52.140;5.428;2024-03-17T00:58:25;15.03;;;9.33;;
72115;SDS011;59991;52.140;5.428;2024-03-17T00:58:56;11.48;;;9.05;;
72115;SDS011;59991;52.140;5.428;2024-03-17T00:59:27;15.52;;;10.55;;
72115;SDS011;59991;52.140;5.428;2024-03-17T00:59:58;10.17;;;9.13;;
72115;SDS011;59991;52.140;5.428;2024-03-17T01:00:29;11.90;;;9.45;;
72115;SDS011;59991;52.140;5.428;2024-03-17T01:00:59;13.90;;;9.65;;
72115;SDS011;59991;52.140;5.428;2024-03-17T01:01:30;13.33;;;9.60;;
72115;SDS011;59991;52.140;5.428;2024-03-17T01:02:00;11.82;;;9.18;;
72115;SDS011;59991;52.140;5.428;2024-03-17T01:02:32;10.73;;;9.30;;
72115;SDS011;59991;52.140;5.428;2024-03-17T01:03:03;10.80;;;8.70;;
72115;SDS011;59991;52.140;5.428;2024-03-17T01:03:33;12.32;;;9.23;;
72115;SDS011;59991;52.140;5.428;2024-03-17T01:04:04;11.77;;;8.50;;
72115;SDS011;59991;52.140;5.428;2024-03-17T01:04:35;13.02;;;9.18;;
72115;SDS011;59991;52.140;5.428;2024-03-17T01:05:05;13.07;;;8.83;;
72115;SDS011;59991;52.140;5.428;2024-03-17T01:05:37;12.48;;;8.73;;
72115;SDS011;59991;52.140;5.428;2024-03-17T01:06:12;9.63;;;8.32;;
72115;SDS011;59991;52.140;5.428;2024-03-17T01:06:44;14.65;;;9.85;;
72115;SDS011;59991;52.140;5.428;2024-03-17T01:07:14;12.20;;;8.97;;
72115;SDS011;59991;52.140;5.428;2024-03-17T01:07:45;18.27;;;9.43;;
72115;SDS011;59991;52.140;5.428;2024-03-17T01:08:18;14.95;;;8.18;;
72115;SDS011;59991;52.140;5.428;2024-03-17T01:08:49;13.27;;;8.40;;
72115;SDS011;59991;52.140;5.428;2024-03-17T01:09:22;10.15;;;8.73;;
72115;SDS011;59991;52.140;5.428;2024-03-17T01:09:52;15.70;;;9.00;;
72115;SDS011;59991;52.140;5.428;2024-03-17T01:10:24;9.75;;;8.68;;
72115;SDS011;59991;52.140;5.428;2024-03-17T01:10:54;11.03;;;9.27;;
72115;SDS011;59991;52.140;5.428;2024-03-17T01:11:25;13.88;;;8.25;;
72115;SDS011;59991;52.140;5.428;2024-03-17T01:11:56;11.17;;;8.97;;
72115;SDS011;59991;52.140;5.428;2024-03-17T01:12:26;13.25;;;9.27;;
72115;SDS011;59991;52.140;5.428;2024-03-17T01:12:57;12.60;;;8.93;;
72115;SDS011;59991;52.140;5.428;2024-03-17T01:13:27;12.98;;;9.10;;
72115;SDS011;59991;52.140;5.428;2024-03-17T01:13:58;15.20;;;8.97;;
72115;SDS011;59991;52.140;5.428;2024-03-17T01:14:29;16.35;;;9.43;;
72115;SDS011;59991;52.140;5.428;2024-03-17T01:15:02;12.82;;;9.10;;
72115;SDS011;59991;52.140;5.428;2024-03-17T01:15:34;14.48;;;10.27;;
72115;SDS011;59991;52.140;5.428;2024-03-17T01:16:09;11.40;;;8.50;;
72115;SDS011;59991;52.140;5.428;2024-03-17T01:16:39;12.63;;;8.93;;
72115;SDS011;59991;52.140;5.428;2024-03-17T01:17:10;15.83;;;8.90;;
72115;SDS011;59991;52.140;5.428;2024-03-17T01:17:41;15.20;;;9.98;;
72115;SDS011;59991;52.140;5.428;2024-03-17T01:18:30;13.98;;;9.68;;
72115;SDS011;59991;52.140;5.428;2024-03-17T01:19:01;13.03;;;9.87;;
72115;SDS011;59991;52.140;5.428;2024-03-17T01:19:32;12.65;;;8.98;;
72115;SDS011;59991;52.140;5.428;2024-03-17T01:20:02;12.60;;;10.17;;
72115;SDS011;59991;52.140;5.428;2024-03-17T01:20:36;13.52;;;8.93;;
72115;SDS011;59991;52.140;5.428;2024-03-17T01:21:07;11.07;;;9.23;;
72115;SDS011;59991;52.140;5.428;2024-03-17T01:21:38;15.48;;;9.55;;
72115;SDS011;59991;52.140;5.428;2024-03-17T01:22:09;11.20;;;9.47;;
72115;SDS011;59991;52.140;5.428;2024-03-17T01:22:39;13.13;;;10.60;;
72115;SDS011;59991;52.140;5.428;2024-03-17T01:23:10;16.47;;;9.50;;
72115;SDS011;59991;52.140;5.428;2024-03-17T01:23:41;11.45;;;10.27;;
72115;SDS011;59991;52.140;5.428;2024-03-17T01:25:01;13.25;;;10.50;;
72115;SDS011;59991;52.140;5.428;2024-03-17T01:25:33;15.45;;;10.10;;
72115;SDS011;59991;52.140;5.428;2024-03-17T01:26:06;14.80;;;10.23;;
72115;SDS011;59991;52.140;5.428;2024-03-17T01:26:36;14.73;;;11.10;;
72115;SDS011;59991;52.140;5.428;2024-03-17T01:27:07;15.57;;;9.73;;
72115;SDS011;59991;52.140;5.428;2024-03-17T01:27:37;15.73;;;10.07;;
72115;SDS011;59991;52.140;5.428;2024-03-17T01:28:08;16.70;;;9.77;;
72115;SDS011;59991;52.140;5.428;2024-03-17T01:28:39;15.15;;;9.00;;
72115;SDS011;59991;52.140;5.428;2024-03-17T01:29:09;15.80;;;10.80;;
72115;SDS011;59991;52.140;5.428;2024-03-17T01:29:40;17.85;;;10.70;;
72115;SDS011;59991;52.140;5.428;2024-03-17T01:30:11;13.15;;;9.82;;
72115;SDS011;59991;52.140;5.428;2024-03-17T01:30:42;15.60;;;9.73;;
72115;SDS011;59991;52.140;5.428;2024-03-17T01:31:13;15.23;;;10.17;;
72115;SDS011;59991;52.140;5.428;2024-03-17T01:31:43;12.93;;;9.37;;
72115;SDS011;59991;52.140;5.428;2024-03-17T01:32:14;14.40;;;10.03;;
72115;SDS011;59991;52.140;5.428;2024-03-17T01:32:45;18.70;;;10.48;;
72115;SDS011;59991;52.140;5.428;2024-03-17T01:33:16;14.73;;;10.80;;
72115;SDS011;59991;52.140;5.428;2024-03-17T01:33:47;15.38;;;9.80;;
72115;SDS011;59991;52.140;5.428;2024-03-17T01:34:18;16.98;;;10.27;;
72115;SDS011;59991;52.140;5.428;2024-03-17T01:34:49;13.68;;;10.88;;
72115;SDS011;59991;52.140;5.428;2024-03-17T01:35:20;15.17;;;9.83;;
72115;SDS011;59991;52.140;5.428;2024-03-17T01:35:50;14.20;;;10.57;;
72115;SDS011;59991;52.140;5.428;2024-03-17T01:36:21;13.53;;;9.87;;
72115;SDS011;59991;52.140;5.428;2024-03-17T01:36:51;14.55;;;10.45;;
72115;SDS011;59991;52.140;5.428;2024-03-17T01:37:22;15.07;;;10.97;;
72115;SDS011;59991;52.140;5.428;2024-03-17T01:37:52;14.98;;;11.07;;
72115;SDS011;59991;52.140;5.428;2024-03-17T01:38:23;15.83;;;11.37;;
72115;SDS011;59991;52.140;5.428;2024-03-17T01:39:12;16.10;;;11.13;;
72115;SDS011;59991;52.140;5.428;2024-03-17T01:39:43;15.43;;;10.67;;
72115;SDS011;59991;52.140;5.428;2024-03-17T01:40:13;15.57;;;12.15;;
72115;SDS011;59991;52.140;5.428;2024-03-17T01:40:44;18.17;;;12.13;;
72115;SDS011;59991;52.140;5.428;2024-03-17T01:41:14;17.52;;;11.43;;
72115;SDS011;59991;52.140;5.428;2024-03-17T01:41:45;18.00;;;11.68;;
72115;SDS011;59991;52.140;5.428;2024-03-17T01:42:16;13.43;;;10.60;;
72115;SDS011;59991;52.140;5.428;2024-03-17T01:42:46;17.27;;;11.13;;
72115;SDS011;59991;52.140;5.428;2024-03-17T01:43:17;16.67;;;11.15;;
72115;SDS011;59991;52.140;5.428;2024-03-17T01:43:47;17.73;;;12.27;;
72115;SDS011;59991;52.140;5.428;2024-03-17T01:44:21;19.73;;;12.75;;
72115;SDS011;59991;52.140;5.428;2024-03-17T01:45:54;21.15;;;11.32;;
72115;SDS011;59991;52.140;5.428;2024-03-17T01:46:24;14.20;;;9.83;;
72115;SDS011;59991;52.140;5.428;2024-03-17T01:46:55;14.43;;;10.93;;
72115;SDS011;59991;52.140;5.428;2024-03-17T01:47:26;16.92;;;10.70;;
72115;SDS011;59991;52.140;5.428;2024-03-17T01:47:58;19.67;;;11.13;;
72115;SDS011;59991;52.140;5.428;2024-03-17T01:48:30;16.65;;;10.98;;
72115;SDS011;59991;52.140;5.428;2024-03-17T01:49:01;19.58;;;10.77;;
72115;SDS011;59991;52.140;5.428;2024-03-17T01:49:34;13.75;;;10.25;;
72115;SDS011;59991;52.140;5.428;2024-03-17T01:50:05;18.92;;;10.63;;
72115;SDS011;59991;52.140;5.428;2024-03-17T01:50:38;13.35;;;11.35;;
72115;SDS011;59991;52.140;5.428;2024-03-17T01:51:10;16.52;;;10.77;;
72115;SDS011;59991;52.140;5.428;2024-03-17T01:51:44;16.50;;;10.85;;
72115;SDS011;59991;52.140;5.428;2024-03-17T01:52:15;15.97;;;10.17;;
72115;SDS011;59991;52.140;5.428;2024-03-17T01:52:47;18.42;;;11.27;;
72115;SDS011;59991;52.140;5.428;2024-03-17T01:53:18;12.75;;;10.57;;
72115;SDS011;59991;52.140;5.428;2024-03-17T01:53:49;19.45;;;10.90;;
72115;SDS011;59991;52.140;5.428;2024-03-17T01:54:20;15.63;;;11.48;;
72115;SDS011;59991;52.140;5.428;2024-03-17T01:54:51;16.03;;;11.03;;
72115;SDS011;59991;52.140;5.428;2024-03-17T01:55:21;14.02;;;11.55;;
72115;SDS011;59991;52.140;5.428;2024-03-17T01:55:53;16.85;;;11.00;;
72115;SDS011;59991;52.140;5.428;2024-03-17T01:56:27;15.88;;;10.98;;
72115;SDS011;59991;52.140;5.428;2024-03-17T01:56:57;14.13;;;11.80;;
72115;SDS011;59991;52.140;5.428;2024-03-17T01:57:28;13.50;;;11.48;;
72115;SDS011;59991;52.140;5.428;2024-03-17T01:57:59;14.87;;;10.57;;
72115;SDS011;59991;52.140;5.428;2024-03-17T01:59:19;19.55;;;11.25;;
72115;SDS011;59991;52.140;5.428;2024-03-17T01:59:50;17.40;;;10.27;;
72115;SDS011;59991;52.140;5.428;2024-03-17T02:00:21;15.27;;;11.02;;
72115;SDS011;59991;52.140;5.428;2024-03-17T02:00:53;16.13;;;10.55;;
72115;SDS011;59991;52.140;5.428;2024-03-17T02:01:23;14.47;;;11.43;;
72115;SDS011;59991;52.140;5.428;2024-03-17T02:01:54;17.17;;;9.73;;
72115;SDS011;59991;52.140;5.428;2024-03-17T02:02:24;15.65;;;10.23;;
72115;SDS011;59991;52.140;5.428;2024-03-17T02:02:55;18.25;;;10.25;;
72115;SDS011;59991;52.140;5.428;2024-03-17T02:03:25;15.60;;;11.60;;
72115;SDS011;59991;52.140;5.428;2024-03-17T02:03:56;17.95;;;11.20;;
72115;SDS011;59991;52.140;5.428;2024-03-17T02:04:28;14.45;;;10.13;;
72115;SDS011;59991;52.140;5.428;2024-03-17T02:05:00;15.07;;;10.20;;
72115;SDS011;59991;52.140;5.428;2024-03-17T02:05:30;13.68;;;10.40;;
72115;SDS011;59991;52.140;5.428;2024-03-17T02:06:01;14.52;;;11.15;;
72115;SDS011;59991;52.140;5.428;2024-03-17T02:06:32;14.40;;;11.80;;
72115;SDS011;59991;52.140;5.428;2024-03-17T02:07:02;15.43;;;10.63;;
72115;SDS011;59991;52.140;5.428;2024-03-17T02:07:33;20.43;;;11.90;;
72115;SDS011;59991;52.140;5.428;2024-03-17T02:08:06;14.98;;;11.27;;
72115;SDS011;59991;52.140;5.428;2024-03-17T02:08:46;14.95;;;10.10;;
72115;SDS011;59991;52.140;5.428;2024-03-17T02:09:20;14.00;;;11.40;;
72115;SDS011;59991;52.140;5.428;2024-03-17T02:09:52;11.63;;;9.75;;
72115;SDS011;59991;52.140;5.428;2024-03-17T02:10:42;15.45;;;10.63;;
72115;SDS011;59991;52.140;5.428;2024-03-17T02:11:16;17.23;;;11.20;;
72115;SDS011;59991;52.140;5.428;2024-03-17T02:12:01;15.38;;;10.10;;
72115;SDS011;59991;52.140;5.428;2024-03-17T02:12:32;14.73;;;10.23;;
72115;SDS011;59991;52.140;5.428;2024-03-17T02:13:03;15.70;;;10.90;;
72115;SDS011;59991;52.140;5.428;2024-03-17T02:13:34;13.60;;;9.90;;
72115;SDS011;59991;52.140;5.428;2024-03-17T02:14:04;14.80;;;10.03;;
72115;SDS011;59991;52.140;5.428;2024-03-17T02:14:38;16.00;;;11.13;;
72115;SDS011;59991;52.140;5.428;2024-03-17T02:15:09;17.65;;;11.35;;
72115;SDS011;59991;52.140;5.428;2024-03-17T02:15:39;13.77;;;12.30;;
72115;SDS011;59991;52.140;5.428;2024-03-17T02:16:10;18.33;;;13.37;;
72115;SDS011;59991;52.140;5.428;2024-03-17T02:16:40;17.60;;;10.98;;
72115;SDS011;59991;52.140;5.428;2024-03-17T02:18:19;17.92;;;10.95;;
72115;SDS011;59991;52.140;5.428;2024-03-17T02:18:53;18.23;;;11.73;;
72115;SDS011;59991;52.140;5.428;2024-03-17T02:19:25;13.57;;;11.13;;
72115;SDS011;59991;52.140;5.428;2024-03-17T02:19:56;14.70;;;10.15;;
72115;SDS011;59991;52.140;5.428;2024-03-17T02:20:26;12.73;;;10.67;;
72115;SDS011;59991;52.140;5.428;2024-03-17T02:21:15;15.00;;;10.85;;
72115;SDS011;59991;52.140;5.428;2024-03-17T02:21:46;16.10;;;11.63;;
72115;SDS011;59991;52.140;5.428;2024-03-17T02:22:16;19.67;;;11.70;;
72115;SDS011;59991;52.140;5.428;2024-03-17T02:22:47;16.85;;;10.82;;
72115;SDS011;59991;52.140;5.428;2024-03-17T02:23:17;14.30;;;9.70;;
72115;SDS011;59991;52.140;5.428;2024-03-17T02:23:48;19.80;;;10.18;;
72115;SDS011;59991;52.140;5.428;2024-03-17T02:24:19;16.03;;;10.77;;
72115;SDS011;59991;52.140;5.428;2024-03-17T02:25:39;16.85;;;10.77;;
72115;SDS011;59991;52.140;5.428;2024-03-17T02:26:10;15.50;;;11.43;;
72115;SDS011;59991;52.140;5.428;2024-03-17T02:26:41;16.33;;;11.07;;
72115;SDS011;59991;52.140;5.428;2024-03-17T02:27:11;14.50;;;10.80;;
72115;SDS011;59991;52.140;5.428;2024-03-17T02:27:42;15.30;;;11.98;;
72115;SDS011;59991;52.140;5.428;2024-03-17T02:28:13;15.97;;;11.20;;
72115;SDS011;59991;52.140;5.428;2024-03-17T02:28:44;15.18;;;11.65;;
72115;SDS011;59991;52.140;5.428;2024-03-17T02:29:15;15.80;;;10.75;;
72115;SDS011;59991;52.140;5.428;2024-03-17T02:29:46;17.00;;;10.93;;
72115;SDS011;59991;52.140;5.428;2024-03-17T02:30:16;14.82;;;11.20;;
72115;SDS011;59991;52.140;5.428;2024-03-17T02:30:47;14.73;;;10.50;;
72115;SDS011;59991;52.140;5.428;2024-03-17T02:31:18;17.07;;;11.03;;
72115;SDS011;59991;52.140;5.428;2024-03-17T02:31:48;18.93;;;12.60;;
72115;SDS011;59991;52.140;5.428;2024-03-17T02:32:19;14.25;;;11.35;;
72115;SDS011;59991;52.140;5.428;2024-03-17T02:33:08;20.15;;;11.48;;
72115;SDS011;59991;52.140;5.428;2024-03-17T02:33:38;16.20;;;9.90;;
72115;SDS011;59991;52.140;5.428;2024-03-17T02:34:09;12.97;;;10.40;;
72115;SDS011;59991;52.140;5.428;2024-03-17T02:34:39;15.57;;;10.77;;
72115;SDS011;59991;52.140;5.428;2024-03-17T02:35:10;12.77;;;11.20;;
72115;SDS011;59991;52.140;5.428;2024-03-17T02:35:41;15.40;;;11.20;;
72115;SDS011;59991;52.140;5.428;2024-03-17T02:36:12;18.88;;;11.82;;
72115;SDS011;59991;52.140;5.428;2024-03-17T02:36:43;16.50;;;10.23;;
72115;SDS011;59991;52.140;5.428;2024-03-17T02:37:13;19.73;;;11.30;;
72115;SDS011;59991;52.140;5.428;2024-03-17T02:37:44;15.93;;;11.27;;
72115;SDS011;59991;52.140;5.428;2024-03-17T02:38:17;13.93;;;10.23;;
72115;SDS011;59991;52.140;5.428;2024-03-17T02:39:08;13.93;;;10.98;;
72115;SDS011;59991;52.140;5.428;2024-03-17T02:39:57;15.15;;;11.38;;
72115;SDS011;59991;52.140;5.428;2024-03-17T02:40:28;15.80;;;10.13;;
72115;SDS011;59991;52.140;5.428;2024-03-17T02:40:59;16.83;;;10.55;;
72115;SDS011;59991;52.140;5.428;2024-03-17T02:41:29;13.65;;;10.48;;
72115;SDS011;59991;52.140;5.428;2024-03-17T02:42:03;18.20;;;10.67;;
72115;SDS011;59991;52.140;5.428;2024-03-17T02:42:35;15.65;;;11.65;;
72115;SDS011;59991;52.140;5.428;2024-03-17T02:43:08;15.77;;;10.27;;
72115;SDS011;59991;52.140;5.428;2024-03-17T02:43:38;15.80;;;10.10;;
72115;SDS011;59991;52.140;5.428;2024-03-17T02:44:09;14.18;;;10.27;;
72115;SDS011;59991;52.140;5.428;2024-03-17T02:44:41;14.75;;;10.70;;
72115;SDS011;59991;52.140;5.428;2024-03-17T02:45:12;15.37;;;11.33;;
72115;SDS011;59991;52.140;5.428;2024-03-17T02:45:43;15.85;;;10.70;;
72115;SDS011;59991;52.140;5.428;2024-03-17T02:46:14;18.50;;;10.82;;
72115;SDS011;59991;52.140;5.428;2024-03-17T02:46:46;15.27;;;11.32;;
72115;SDS011;59991;52.140;5.428;2024-03-17T02:47:17;17.45;;;10.77;;
72115;SDS011;59991;52.140;5.428;2024-03-17T02:47:48;15.93;;;10.63;;
72115;SDS011;59991;52.140;5.428;2024-03-17T02:48:19;15.15;;;10.13;;
72115;SDS011;59991;52.140;5.428;2024-03-17T02:48:53;17.33;;;10.45;;
72115;SDS011;59991;52.140;5.428;2024-03-17T02:49:27;25.50;;;12.82;;
72115;SDS011;59991;52.140;5.428;2024-03-17T02:50:06;13.30;;;10.10;;
72115;SDS011;59991;52.140;5.428;2024-03-17T02:50:37;13.13;;;9.70;;
72115;SDS011;59991;52.140;5.428;2024-03-17T02:51:08;14.18;;;10.70;;
72115;SDS011;59991;52.140;5.428;2024-03-17T02:51:38;17.23;;;11.37;;
72115;SDS011;59991;52.140;5.428;2024-03-17T02:52:10;22.90;;;11.40;;
72115;SDS011;59991;52.140;5.428;2024-03-17T02:52:41;42.10;;;14.75;;
72115;SDS011;59991;52.140;5.428;2024-03-17T02:53:30;16.10;;;11.43;;
72115;SDS011;59991;52.140;5.428;2024-03-17T02:54:01;15.50;;;10.50;;
72115;SDS011;59991;52.140;5.428;2024-03-17T02:54:32;21.67;;;11.60;;
72115;SDS011;59991;52.140;5.428;2024-03-17T02:55:03;13.10;;;11.30;;
72115;SDS011;59991;52.140;5.428;2024-03-17T02:55:34;18.27;;;11.30;;
72115;SDS011;59991;52.140;5.428;2024-03-17T02:56:23;12.77;;;9.90;;
72115;SDS011;59991;52.140;5.428;2024-03-17T02:56:53;16.30;;;10.10;;
72115;SDS011;59991;52.140;5.428;2024-03-17T02:57:24;14.13;;;10.57;;
72115;SDS011;59991;52.140;5.428;2024-03-17T02:57:55;16.10;;;10.60;;
72115;SDS011;59991;52.140;5.428;2024-03-17T02:58:25;19.08;;;11.45;;
72115;SDS011;59991;52.140;5.428;2024-03-17T02:58:56;14.80;;;10.87;;
72115;SDS011;59991;52.140;5.428;2024-03-17T02:59:26;15.52;;;11.18;;
72115;SDS011;59991;52.140;5.428;2024-03-17T02:59:57;15.13;;;11.00;;
72115;SDS011;59991;52.140;5.428;2024-03-17T03:00:28;14.48;;;10.95;;
72115;SDS011;59991;52.140;5.428;2024-03-17T03:01:00;19.10;;;11.13;;
72115;SDS011;59991;52.140;5.428;2024-03-17T03:01:30;16.20;;;11.03;;
72115;SDS011;59991;52.140;5.428;2024-03-17T03:02:01;18.23;;;11.90;;
72115;SDS011;59991;52.140;5.428;2024-03-17T03:02:32;14.85;;;11.65;;
72115;SDS011;59991;52.140;5.428;2024-03-17T03:03:21;13.33;;;9.70;;
72115;SDS011;59991;52.140;5.428;2024-03-17T03:03:51;17.23;;;11.25;;
72115;SDS011;59991;52.140;5.428;2024-03-17T03:04:22;12.10;;;10.80;;
72115;SDS011;59991;52.140;5.428;2024-03-17T03:04:53;17.00;;;11.93;;
72115;SDS011;59991;52.140;5.428;2024-03-17T03:05:41;14.50;;;10.45;;
72115;SDS011;59991;52.140;5.428;2024-03-17T03:06:12;15.37;;;11.63;;
72115;SDS011;59991;52.140;5.428;2024-03-17T03:06:43;14.03;;;10.83;;
72115;SDS011;59991;52.140;5.428;2024-03-17T03:07:14;14.18;;;10.20;;
72115;SDS011;59991;52.140;5.428;2024-03-17T03:07:44;12.73;;;10.30;;
72115;SDS011;59991;52.140;5.428;2024-03-17T03:08:15;17.60;;;11.38;;
72115;SDS011;59991;52.140;5.428;2024-03-17T03:08:45;14.07;;;10.83;;
72115;SDS011;59991;52.140;5.428;2024-03-17T03:09:18;14.77;;;10.95;;
72115;SDS011;59991;52.140;5.428;2024-03-17T03:10:01;14.93;;;10.38;;
72115;SDS011;59991;52.140;5.428;2024-03-17T03:10:31;16.33;;;10.40;;
72115;SDS011;59991;52.140;5.428;2024-03-17T03:11:03;10.75;;;9.65;;
72115;SDS011;59991;52.140;5.428;2024-03-17T03:11:34;15.20;;;11.68;;
72115;SDS011;59991;52.140;5.428;2024-03-17T03:12:05;12.90;;;10.27;;
72115;SDS011;59991;52.140;5.428;2024-03-17T03:12:37;13.73;;;11.30;;
72115;SDS011;59991;52.140;5.428;2024-03-17T03:13:08;18.47;;;10.97;;
72115;SDS011;59991;52.140;5.428;2024-03-17T03:13:57;14.27;;;10.87;;
72115;SDS011;59991;52.140;5.428;2024-03-17T03:14:27;11.32;;;10.18;;
72115;SDS011;59991;52.140;5.428;2024-03-17T03:14:58;14.00;;;10.30;;
72115;SDS011;59991;52.140;5.428;2024-03-17T03:15:47;11.23;;;10.07;;